Santa Paula, California
Current Conditions -  °F | °C
As of 4:55 AM on Tuesday 21 Oct 2014 (Local Time) from KCMA Reporting Station
Clear Clear  
Wind Chill: 14°   Ceiling: Unl
Heat Index: 14°   Visibility: 10mi
Dew Point: 11°   Wind: 6mph
Humidity: 83%   Direction: 50°NE
Pressure: 29.88"   Gusts: NA
Location:  34.35°N, 119.05°W
Report Text: KCMA 211155Z AUTO 05005KT 10SM CLR 14/11 A2988 RMK AO2 SLP127 T01390111 10172 20133 58001
Loading
Personal Weather Stations






























Interactive Weather Map
Tropical Storm Tracking
New forecast layout! Learn more

10-Day Weather Forecast

Advertisements
Track Severe Weather on mobile